Ohshima Maru — JHAA — position and weather

sailwx.info

Track history (hours):
 
Tides and Currents Weather Stations Pressure Air Temp Water Temp Dewpoint Dewpoint Depression Visibility Wind Speed Wind Dir Waves Ship Positions

Ohshima Maru

Last reported at 2017-Dec-07 07:59 UTC. Time now 2017-Dec-11 15:23 UTC.
Position N 33°53' E 134°58'.

Length 56 m; draft 4.5 m.

Type: Fishing. MMSI: 431832000.

Date/timePositionNaut miles runAvg speedWind from/ knotsBaromVisibWave heightAir tempDewpointWater temp
2017-Dec-07 07:59N 33°53' E 134°58'612.4
2017-Dec-07 07:30N 33°59' E 134°57'612.2
2017-Dec-07 07:01N 34°05' E 134°58'612.5
2017-Dec-07 06:30N 34°11' E 134°58'612.9
2017-Dec-07 06:00N 34°17' E 134°58'611.1
2017-Dec-07 05:30N 34°23' E 135°00'611.8
2017-Dec-07 05:00N 34°28' E 135°04'612.5
2017-Dec-07 04:30N 34°33' E 135°08'612.4
2017-Dec-07 04:00N 34°39' E 135°11'2 4.0
2017-Dec-07 03:29N 34°41' E 135°11'0 0.0
2017-Dec-07 02:59N 34°41' E 135°11'0 0.0
2017-Dec-07 02:29N 34°41' E 135°11'0 0.0
2017-Dec-07 01:59N 34°41' E 135°11'0 0.0
2017-Dec-07 01:29N 34°41' E 135°11'0 0.0
2017-Dec-07 00:59N 34°41' E 135°11'0 0.0
2017-Dec-07 00:29N 34°41' E 135°11'0 0.0
2017-Dec-06 23:56N 34°41' E 135°11'0 0.0
2017-Dec-06 23:29N 34°41' E 135°11'0 0.0
2017-Dec-06 22:59N 34°41' E 135°11'0 0.0
2017-Dec-06 22:29N 34°41' E 135°11'0 0.0
2017-Dec-06 21:59N 34°41' E 135°11'0 0.0
2017-Dec-06 21:29N 34°41' E 135°11'0 0.0
2017-Dec-06 20:56N 34°41' E 135°11'  
2017-Dec-04 05:48N 34°23' E 138°36'311.2
2017-Dec-04 05:29N 34°25' E 138°40'911.1
2017-Dec-04 04:40N 34°28' E 138°50'310.6
2017-Dec-04 04:22N 34°29' E 138°54'410.7
2017-Dec-04 04:00N 34°31' E 138°58'610.5
2017-Dec-04 03:28N 34°33' E 139°04'510.4
2017-Dec-04 03:00N 34°35' E 139°10'510.1
2017-Dec-04 02:29N 34°36' E 139°16'611.1
2017-Dec-04 01:55N 34°39' E 139°23'811.3
2017-Dec-04 01:13N 34°43' E 139°31'312.6
2017-Dec-04 01:00N 34°45' E 139°33'612.8
2017-Dec-04 00:30N 34°51' E 139°37'713.3
2017-Dec-04 00:00N 34°57' E 139°41'611.5
2017-Dec-03 23:30N 35°00' E 139°46'3 4.7
2017-Dec-03 22:49N 35°00' E 139°50'0 0.0
2017-Dec-03 22:25N 35°01' E 139°50'0 0.0
2017-Dec-03 20:37N 35°00' E 139°50'0 0.0
2017-Dec-03 19:31N 35°00' E 139°50'0 0.0
2017-Dec-03 19:13N 35°00' E 139°50'0 0.0
2017-Dec-03 18:55N 35°01' E 139°50'0 0.0
2017-Dec-03 18:07N 35°01' E 139°50'0 0.0
2017-Dec-03 17:49N 35°00' E 139°50'0 0.0
2017-Dec-03 15:55N 35°00' E 139°50'0 0.0
2017-Dec-03 15:25N 35°00' E 139°50'0 0.0
2017-Dec-03 13:08N 35°00' E 139°50'0 0.1
2017-Dec-03 12:56N 35°01' E 139°50'0 0.1
2017-Dec-03 12:08N 35°01' E 139°50'0 0.1
2017-Dec-03 11:44N 35°01' E 139°50'0 0.0
2017-Dec-03 11:29N 35°01' E 139°50'0 0.1
2017-Dec-03 10:56N 35°01' E 139°50'0 0.1
2017-Dec-03 10:14N 35°00' E 139°50'0 0.0
2017-Dec-03 09:50N 35°00' E 139°50'0 0.0
2017-Dec-03 08:56N 35°00' E 139°50'0 0.0
2017-Dec-03 08:14N 35°01' E 139°50'0 0.2
2017-Dec-03 07:56N 35°01' E 139°50'0 0.1
2017-Dec-03 07:14N 35°01' E 139°50'0 0.1
2017-Dec-03 06:50N 35°01' E 139°50'2 4.6
2017-Dec-03 06:30N 35°01' E 139°49'611.3
2017-Dec-03 06:00N 35°07' E 139°47'612.1
2017-Dec-03 05:30N 35°13' E 139°46'611.5
2017-Dec-03 05:01N 35°18' E 139°44'611.3
2017-Dec-03 04:31N 35°24' E 139°43'611.7
2017-Dec-03 04:00N 35°28' E 139°48'611.1
2017-Dec-03 03:29N 35°33' E 139°50'611.9
2017-Dec-03 03:00N 35°38' E 139°46'2 0.8
2017-Dec-03 01:03N 35°39' E 139°46'0 0.0
2017-Dec-03 01:00N 35°39' E 139°46'0 0.0
2017-Dec-03 00:21N 35°39' E 139°46'0 0.0
2017-Dec-03 00:00N 35°39' E 139°46'0 0.0
2017-Dec-02 23:27N 35°39' E 139°46'0 0.0
2017-Dec-02 22:57N 35°39' E 139°46'0 0.0
2017-Dec-02 22:18N 35°39' E 139°46'0 0.0
2017-Dec-02 21:57N 35°39' E 139°46'0 0.0
2017-Dec-02 21:21N 35°39' E 139°46'0 0.0
2017-Dec-02 20:57N 35°39' E 139°46'0 0.0
2017-Dec-02 20:21N 35°39' E 139°46'0 0.0
2017-Dec-02 19:57N 35°39' E 139°46'0 0.0
2017-Dec-02 19:27N 35°39' E 139°46'0 0.0
2017-Dec-02 18:57N 35°39' E 139°46'0 0.0
2017-Dec-02 18:30N 35°39' E 139°46'0 0.0
2017-Dec-02 18:00N 35°39' E 139°46'0 0.0
2017-Dec-02 17:27N 35°39' E 139°46'0 0.0
2017-Dec-02 16:57N 35°39' E 139°46'0 0.0
2017-Dec-02 16:30N 35°39' E 139°46'0 0.0
2017-Dec-02 15:57N 35°39' E 139°46'0 0.0
2017-Dec-02 15:30N 35°39' E 139°46'0 0.0
2017-Dec-02 14:57N 35°39' E 139°46'0 0.0
2017-Dec-02 14:30N 35°39' E 139°46'0 0.0
2017-Dec-02 13:57N 35°39' E 139°46'0 0.0
2017-Dec-02 13:27N 35°39' E 139°46'0 0.0
2017-Dec-02 13:00N 35°39' E 139°46'0 0.0
2017-Dec-02 12:30N 35°39' E 139°46'0 0.0
2017-Dec-02 11:57N 35°39' E 139°46'0 0.0
2017-Dec-02 11:27N 35°39' E 139°46'0 0.0
2017-Dec-02 11:00N 35°39' E 139°46'0 0.0
2017-Dec-02 10:30N 35°39' E 139°46'0 0.0
2017-Dec-02 10:00N 35°39' E 139°46'0 0.0
2017-Dec-02 09:27N 35°39' E 139°46'0 0.0
2017-Dec-02 08:57N 35°39' E 139°46'0 0.0
2017-Dec-02 08:24N 35°39' E 139°46'0 0.0
2017-Dec-02 08:00N 35°39' E 139°46'0 0.0
2017-Dec-02 07:27N 35°39' E 139°46'0 0.0
2017-Dec-02 07:00N 35°39' E 139°46'0 0.0
2017-Dec-02 06:24N 35°39' E 139°46'0 0.0
2017-Dec-02 05:57N 35°39' E 139°46'0 0.0
2017-Dec-02 05:27N 35°39' E 139°46'0 0.0
2017-Dec-02 05:00N 35°39' E 139°46'0 0.0
2017-Dec-02 04:30N 35°39' E 139°46'0 0.0
2017-Dec-02 04:00N 35°39' E 139°46'0 0.0
2017-Dec-02 03:30N 35°39' E 139°46'0 0.0
2017-Dec-02 03:00N 35°39' E 139°46'0 0.0
2017-Dec-02 02:30N 35°39' E 139°46'0 0.0
2017-Dec-02 01:54N 35°39' E 139°46'0 0.0
2017-Dec-02 01:24N 35°39' E 139°46'0 0.0
2017-Dec-02 01:00N 35°39' E 139°46'0 0.0
2017-Dec-02 00:30N 35°39' E 139°46'0 0.0
2017-Dec-02 00:00N 35°39' E 139°46'0 0.0
2017-Dec-01 23:27N 35°39' E 139°46'0 0.0
2017-Dec-01 23:00N 35°39' E 139°46'0 0.0
2017-Dec-01 22:30N 35°39' E 139°46'0 0.0
2017-Dec-01 21:54N 35°39' E 139°46'0 0.0
2017-Dec-01 21:30N 35°39' E 139°46'0 0.0
2017-Dec-01 20:57N 35°39' E 139°46'0 0.0
2017-Dec-01 20:27N 35°39' E 139°46'0 0.0
2017-Dec-01 19:51N 35°39' E 139°46'0 0.0
2017-Dec-01 19:27N 35°39' E 139°46'0 0.0
2017-Dec-01 18:45N 35°39' E 139°46'0 0.0
2017-Dec-01 18:27N 35°39' E 139°46'0 0.0
2017-Dec-01 17:57N 35°39' E 139°46'0 0.0
2017-Dec-01 17:27N 35°39' E 139°46'0 0.0
2017-Dec-01 16:57N 35°39' E 139°46'0 0.0
2017-Dec-01 16:21N 35°39' E 139°46'0 0.0
2017-Dec-01 15:51N 35°39' E 139°46'0 0.0
2017-Dec-01 15:27N 35°39' E 139°46'0 0.0
2017-Dec-01 14:51N 35°39' E 139°46'0 0.0
2017-Dec-01 14:30N 35°39' E 139°46'0 0.0
2017-Dec-01 14:00N 35°39' E 139°46'0 0.0
2017-Dec-01 13:30N 35°39' E 139°46'0 0.0
2017-Dec-01 12:57N 35°39' E 139°46'0 0.0
2017-Dec-01 12:30N 35°39' E 139°46'0 0.0
2017-Dec-01 11:58N 35°39' E 139°46'0 0.0
2017-Dec-01 11:28N 35°39' E 139°46'0 0.0
2017-Dec-01 10:58N 35°39' E 139°46'0 0.0
2017-Dec-01 10:28N 35°39' E 139°46'0 0.0
2017-Dec-01 09:58N 35°39' E 139°46'0 0.0
2017-Dec-01 09:28N 35°39' E 139°46'0 0.0
2017-Dec-01 08:58N 35°39' E 139°46'0 0.0
2017-Dec-01 08:28N 35°39' E 139°46'0 0.0
2017-Dec-01 08:01N 35°39' E 139°46'3 5.3
2017-Dec-01 07:31N 35°36' E 139°46'611.4
2017-Dec-01 07:00N 35°33' E 139°51'611.1
2017-Dec-01 06:30N 35°27' E 139°50'611.7
2017-Dec-01 06:01N 35°22' E 139°45'611.0
2017-Dec-01 05:30N 35°17' E 139°46'611.8
2017-Dec-01 05:01N 35°11' E 139°47'612.1
2017-Dec-01 04:31N 35°05' E 139°47'612.0
2017-Dec-01 04:00N 34°60' E 139°43'711.7
2017-Dec-01 03:25N 34°55' E 139°38'612.1
2017-Dec-01 02:56N 34°50' E 139°33'  
Track history (hours):
 
Tides and Currents Weather Stations Pressure Air Temp Water Temp Dewpoint Dewpoint Depression Visibility Wind Speed Wind Dir Waves Ship Positions

Ohshima Maru

Last reported at 2017-Dec-07 07:59 UTC. Time now 2017-Dec-11 15:23 UTC.
Position N 33°53' E 134°58'.

Length 56 m; draft 4.5 m.

Type: Fishing. MMSI: 431832000.

Date/timePositionNaut miles runAvg speedWind from/ knotsBaromVisibWave heightAir tempDewpointWater temp
2017-Dec-07 07:59N 33°53' E 134°58'612.4
2017-Dec-07 07:30N 33°59' E 134°57'612.2
2017-Dec-07 07:01N 34°05' E 134°58'612.5
2017-Dec-07 06:30N 34°11' E 134°58'612.9
2017-Dec-07 06:00N 34°17' E 134°58'611.1
2017-Dec-07 05:30N 34°23' E 135°00'611.8
2017-Dec-07 05:00N 34°28' E 135°04'612.5
2017-Dec-07 04:30N 34°33' E 135°08'612.4
2017-Dec-07 04:00N 34°39' E 135°11'2 4.0
2017-Dec-07 03:29N 34°41' E 135°11'0 0.0
2017-Dec-07 02:59N 34°41' E 135°11'0 0.0
2017-Dec-07 02:29N 34°41' E 135°11'0 0.0
2017-Dec-07 01:59N 34°41' E 135°11'0 0.0
2017-Dec-07 01:29N 34°41' E 135°11'0 0.0
2017-Dec-07 00:59N 34°41' E 135°11'0 0.0
2017-Dec-07 00:29N 34°41' E 135°11'0 0.0
2017-Dec-06 23:56N 34°41' E 135°11'0 0.0
2017-Dec-06 23:29N 34°41' E 135°11'0 0.0
2017-Dec-06 22:59N 34°41' E 135°11'0 0.0
2017-Dec-06 22:29N 34°41' E 135°11'0 0.0
2017-Dec-06 21:59N 34°41' E 135°11'0 0.0
2017-Dec-06 21:29N 34°41' E 135°11'0 0.0
2017-Dec-06 20:56N 34°41' E 135°11'  
2017-Dec-04 05:48N 34°23' E 138°36'311.2
2017-Dec-04 05:29N 34°25' E 138°40'911.1
2017-Dec-04 04:40N 34°28' E 138°50'310.6
2017-Dec-04 04:22N 34°29' E 138°54'410.7
2017-Dec-04 04:00N 34°31' E 138°58'610.5
2017-Dec-04 03:28N 34°33' E 139°04'510.4
2017-Dec-04 03:00N 34°35' E 139°10'510.1
2017-Dec-04 02:29N 34°36' E 139°16'611.1
2017-Dec-04 01:55N 34°39' E 139°23'811.3
2017-Dec-04 01:13N 34°43' E 139°31'312.6
2017-Dec-04 01:00N 34°45' E 139°33'612.8
2017-Dec-04 00:30N 34°51' E 139°37'713.3
2017-Dec-04 00:00N 34°57' E 139°41'611.5
2017-Dec-03 23:30N 35°00' E 139°46'3 4.7
2017-Dec-03 22:49N 35°00' E 139°50'0 0.0
2017-Dec-03 22:25N 35°01' E 139°50'0 0.0
2017-Dec-03 20:37N 35°00' E 139°50'0 0.0
2017-Dec-03 19:31N 35°00' E 139°50'0 0.0
2017-Dec-03 19:13N 35°00' E 139°50'0 0.0
2017-Dec-03 18:55N 35°01' E 139°50'0 0.0
2017-Dec-03 18:07N 35°01' E 139°50'0 0.0
2017-Dec-03 17:49N 35°00' E 139°50'0 0.0
2017-Dec-03 15:55N 35°00' E 139°50'0 0.0
2017-Dec-03 15:25N 35°00' E 139°50'0 0.0
2017-Dec-03 13:08N 35°00' E 139°50'0 0.1
2017-Dec-03 12:56N 35°01' E 139°50'0 0.1
2017-Dec-03 12:08N 35°01' E 139°50'0 0.1
2017-Dec-03 11:44N 35°01' E 139°50'0 0.0
2017-Dec-03 11:29N 35°01' E 139°50'0 0.1
2017-Dec-03 10:56N 35°01' E 139°50'0 0.1
2017-Dec-03 10:14N 35°00' E 139°50'0 0.0
2017-Dec-03 09:50N 35°00' E 139°50'0 0.0
2017-Dec-03 08:56N 35°00' E 139°50'0 0.0
2017-Dec-03 08:14N 35°01' E 139°50'0 0.2
2017-Dec-03 07:56N 35°01' E 139°50'0 0.1
2017-Dec-03 07:14N 35°01' E 139°50'0 0.1
2017-Dec-03 06:50N 35°01' E 139°50'2 4.6
2017-Dec-03 06:30N 35°01' E 139°49'611.3
2017-Dec-03 06:00N 35°07' E 139°47'612.1
2017-Dec-03 05:30N 35°13' E 139°46'611.5
2017-Dec-03 05:01N 35°18' E 139°44'611.3
2017-Dec-03 04:31N 35°24' E 139°43'611.7
2017-Dec-03 04:00N 35°28' E 139°48'611.1
2017-Dec-03 03:29N 35°33' E 139°50'611.9
2017-Dec-03 03:00N 35°38' E 139°46'2 0.8
2017-Dec-03 01:03N 35°39' E 139°46'0 0.0
2017-Dec-03 01:00N 35°39' E 139°46'0 0.0
2017-Dec-03 00:21N 35°39' E 139°46'0 0.0
2017-Dec-03 00:00N 35°39' E 139°46'0 0.0
2017-Dec-02 23:27N 35°39' E 139°46'0 0.0
2017-Dec-02 22:57N 35°39' E 139°46'0 0.0
2017-Dec-02 22:18N 35°39' E 139°46'0 0.0
2017-Dec-02 21:57N 35°39' E 139°46'0 0.0
2017-Dec-02 21:21N 35°39' E 139°46'0 0.0
2017-Dec-02 20:57N 35°39' E 139°46'0 0.0
2017-Dec-02 20:21N 35°39' E 139°46'0 0.0
2017-Dec-02 19:57N 35°39' E 139°46'0 0.0
2017-Dec-02 19:27N 35°39' E 139°46'0 0.0
2017-Dec-02 18:57N 35°39' E 139°46'0 0.0
2017-Dec-02 18:30N 35°39' E 139°46'0 0.0
2017-Dec-02 18:00N 35°39' E 139°46'0 0.0
2017-Dec-02 17:27N 35°39' E 139°46'0 0.0
2017-Dec-02 16:57N 35°39' E 139°46'0 0.0
2017-Dec-02 16:30N 35°39' E 139°46'0 0.0
2017-Dec-02 15:57N 35°39' E 139°46'0 0.0
2017-Dec-02 15:30N 35°39' E 139°46'0 0.0
2017-Dec-02 14:57N 35°39' E 139°46'0 0.0
2017-Dec-02 14:30N 35°39' E 139°46'0 0.0
2017-Dec-02 13:57N 35°39' E 139°46'0 0.0
2017-Dec-02 13:27N 35°39' E 139°46'0 0.0
2017-Dec-02 13:00N 35°39' E 139°46'0 0.0
2017-Dec-02 12:30N 35°39' E 139°46'0 0.0
2017-Dec-02 11:57N 35°39' E 139°46'0 0.0
2017-Dec-02 11:27N 35°39' E 139°46'0 0.0
2017-Dec-02 11:00N 35°39' E 139°46'0 0.0
2017-Dec-02 10:30N 35°39' E 139°46'0 0.0
2017-Dec-02 10:00N 35°39' E 139°46'0 0.0
2017-Dec-02 09:27N 35°39' E 139°46'0 0.0
2017-Dec-02 08:57N 35°39' E 139°46'0 0.0
2017-Dec-02 08:24N 35°39' E 139°46'0 0.0
2017-Dec-02 08:00N 35°39' E 139°46'0 0.0
2017-Dec-02 07:27N 35°39' E 139°46'0 0.0
2017-Dec-02 07:00N 35°39' E 139°46'0 0.0
2017-Dec-02 06:24N 35°39' E 139°46'0 0.0
2017-Dec-02 05:57N 35°39' E 139°46'0 0.0
2017-Dec-02 05:27N 35°39' E 139°46'0 0.0
2017-Dec-02 05:00N 35°39' E 139°46'0 0.0
2017-Dec-02 04:30N 35°39' E 139°46'0 0.0
2017-Dec-02 04:00N 35°39' E 139°46'0 0.0
2017-Dec-02 03:30N 35°39' E 139°46'0 0.0
2017-Dec-02 03:00N 35°39' E 139°46'0 0.0
2017-Dec-02 02:30N 35°39' E 139°46'0 0.0
2017-Dec-02 01:54N 35°39' E 139°46'0 0.0
2017-Dec-02 01:24N 35°39' E 139°46'0 0.0
2017-Dec-02 01:00N 35°39' E 139°46'0 0.0
2017-Dec-02 00:30N 35°39' E 139°46'0 0.0
2017-Dec-02 00:00N 35°39' E 139°46'0 0.0
2017-Dec-01 23:27N 35°39' E 139°46'0 0.0
2017-Dec-01 23:00N 35°39' E 139°46'0 0.0
2017-Dec-01 22:30N 35°39' E 139°46'0 0.0
2017-Dec-01 21:54N 35°39' E 139°46'0 0.0
2017-Dec-01 21:30N 35°39' E 139°46'0 0.0
2017-Dec-01 20:57N 35°39' E 139°46'0 0.0
2017-Dec-01 20:27N 35°39' E 139°46'0 0.0
2017-Dec-01 19:51N 35°39' E 139°46'0 0.0
2017-Dec-01 19:27N 35°39' E 139°46'0 0.0
2017-Dec-01 18:45N 35°39' E 139°46'0 0.0
2017-Dec-01 18:27N 35°39' E 139°46'0 0.0
2017-Dec-01 17:57N 35°39' E 139°46'0 0.0
2017-Dec-01 17:27N 35°39' E 139°46'0 0.0
2017-Dec-01 16:57N 35°39' E 139°46'0 0.0
2017-Dec-01 16:21N 35°39' E 139°46'0 0.0
2017-Dec-01 15:51N 35°39' E 139°46'0 0.0
2017-Dec-01 15:27N 35°39' E 139°46'0 0.0
2017-Dec-01 14:51N 35°39' E 139°46'0 0.0
2017-Dec-01 14:30N 35°39' E 139°46'0 0.0
2017-Dec-01 14:00N 35°39' E 139°46'0 0.0
2017-Dec-01 13:30N 35°39' E 139°46'0 0.0
2017-Dec-01 12:57N 35°39' E 139°46'0 0.0
2017-Dec-01 12:30N 35°39' E 139°46'0 0.0
2017-Dec-01 11:58N 35°39' E 139°46'0 0.0
2017-Dec-01 11:28N 35°39' E 139°46'0 0.0
2017-Dec-01 10:58N 35°39' E 139°46'0 0.0
2017-Dec-01 10:28N 35°39' E 139°46'0 0.0
2017-Dec-01 09:58N 35°39' E 139°46'0 0.0
2017-Dec-01 09:28N 35°39' E 139°46'0 0.0
2017-Dec-01 08:58N 35°39' E 139°46'0 0.0
2017-Dec-01 08:28N 35°39' E 139°46'0 0.0
2017-Dec-01 08:01N 35°39' E 139°46'3 5.3
2017-Dec-01 07:31N 35°36' E 139°46'611.4
2017-Dec-01 07:00N 35°33' E 139°51'611.1
2017-Dec-01 06:30N 35°27' E 139°50'611.7
2017-Dec-01 06:01N 35°22' E 139°45'611.0
2017-Dec-01 05:30N 35°17' E 139°46'611.8
2017-Dec-01 05:01N 35°11' E 139°47'612.1
2017-Dec-01 04:31N 35°05' E 139°47'612.0
2017-Dec-01 04:00N 34°60' E 139°43'711.7
2017-Dec-01 03:25N 34°55' E 139°38'612.1
2017-Dec-01 02:56N 34°50' E 139°33'  

Dump ship's entire track history